createdAt,value
2022-08-03T00:04:03.232Z,48.99
2022-08-03T00:09:03.960Z,49.09
2022-08-03T00:14:04.678Z,49.29
2022-08-03T00:19:05.402Z,49.29
2022-08-03T00:24:06.160Z,49.19
2022-08-03T00:29:06.913Z,49.40
2022-08-03T00:34:07.724Z,49.59
2022-08-03T00:39:08.556Z,49.90
2022-08-03T00:44:09.288Z,50.12
2022-08-03T00:49:10.112Z,50.42
2022-08-03T00:54:10.812Z,50.72
2022-08-03T00:59:11.549Z,50.92
2022-08-03T01:04:12.128Z,51.12
2022-08-03T01:09:12.887Z,51.52
2022-08-03T01:14:18.600Z,51.62
2022-08-03T01:19:15.246Z,51.84
2022-08-03T01:24:14.964Z,52.24
2022-08-03T01:29:15.731Z,52.55
2022-08-03T01:34:16.461Z,52.44
2022-08-03T01:39:17.200Z,52.04
2022-08-03T01:44:29.918Z,51.44
2022-08-03T01:49:19.678Z,50.82
2022-08-03T01:54:19.364Z,50.82
2022-08-03T01:59:20.098Z,50.02
2022-08-03T02:04:20.825Z,50.32
2022-08-03T02:09:21.556Z,50.12
2022-08-03T02:14:22.291Z,50.12
2022-08-03T02:19:23.057Z,50.12
2022-08-03T02:24:23.779Z,50.22
2022-08-03T02:29:39.733Z,50.02
2022-08-03T02:34:26.118Z,49.82
2022-08-03T02:39:25.831Z,49.82
2022-08-03T02:44:26.570Z,49.82
2022-08-03T02:49:40.930Z,49.91
2022-08-03T02:54:28.897Z,50.12
2022-08-03T02:59:28.363Z,50.52
2022-08-03T03:04:33.185Z,50.42
2022-08-03T03:09:41.839Z,50.62
2022-08-03T03:14:33.699Z,50.74
2022-08-03T03:19:30.714Z,51.04
2022-08-03T03:24:38.388Z,50.74
2022-08-03T03:29:32.129Z,50.74
2022-08-03T03:34:33.833Z,50.64
2022-08-03T03:39:33.467Z,50.64
2022-08-03T03:44:34.193Z,50.76
2022-08-03T03:49:34.909Z,50.76
2022-08-03T03:54:35.570Z,50.96
2022-08-03T03:59:36.264Z,51.27
2022-08-03T04:04:36.998Z,51.27
2022-08-03T04:09:37.829Z,51.07
2022-08-03T04:14:38.633Z,51.25
2022-08-03T04:19:39.407Z,50.84
2022-08-03T04:24:40.186Z,50.52
2022-08-03T04:29:48.042Z,50.72
2022-08-03T04:34:42.416Z,50.92
2022-08-03T04:39:42.132Z,51.02
2022-08-03T04:44:43.084Z,51.52
2022-08-03T04:49:43.889Z,51.12
2022-08-03T04:54:50.146Z,50.82
2022-08-03T04:59:46.190Z,47.40
2022-08-03T05:04:45.847Z,43.76
2022-08-03T05:09:52.326Z,41.50
2022-08-03T05:14:48.386Z,39.28
2022-08-03T05:19:49.583Z,39.23
2022-08-03T05:24:49.049Z,38.92
2022-08-03T05:29:49.301Z,38.44
2022-08-03T05:34:50.367Z,37.51
2022-08-03T05:39:50.547Z,37.81
2022-08-03T05:44:51.621Z,37.93
2022-08-03T05:49:51.960Z,38.85
2022-08-03T05:54:57.494Z,40.47
2022-08-03T05:59:57.830Z,40.68
2022-08-03T06:04:53.829Z,40.30
2022-08-03T06:10:33.970Z,41.22
2022-08-03T06:14:56.090Z,40.12
2022-08-03T06:19:55.784Z,41.02
2022-08-03T06:24:56.497Z,41.20
2022-08-03T06:29:56.965Z,40.01
2022-08-03T06:34:57.634Z,39.21
2022-08-03T06:39:58.341Z,39.19
2022-08-03T06:44:58.985Z,38.79
2022-08-03T06:50:12.976Z,39.59
2022-08-03T06:55:01.237Z,39.19
2022-08-03T07:00:09.187Z,40.38
2022-08-03T07:05:02.586Z,39.28
2022-08-03T07:10:02.885Z,39.97
2022-08-03T07:15:03.561Z,40.05
2022-08-03T07:20:03.866Z,39.65
2022-08-03T07:25:04.509Z,39.23
2022-08-03T07:30:05.404Z,38.74
2022-08-03T07:35:08.886Z,38.92
2022-08-03T07:40:07.832Z,38.42
2022-08-03T07:45:07.599Z,38.51
2022-08-03T07:50:08.678Z,38.31
2022-08-03T07:55:09.111Z,37.12
2022-08-03T08:00:21.407Z,37.49
2022-08-03T08:05:10.576Z,37.70
2022-08-03T08:10:11.528Z,37.18
2022-08-03T08:15:12.212Z,36.69
2022-08-03T08:20:13.165Z,36.59
2022-08-03T08:25:13.817Z,36.46
2022-08-03T08:30:17.332Z,34.86
2022-08-03T08:35:15.152Z,33.87
2022-08-03T08:40:15.869Z,34.06
2022-08-03T08:45:16.724Z,34.06
2022-08-03T08:50:27.069Z,33.97
2022-08-03T08:55:18.973Z,33.16
2022-08-03T09:00:18.823Z,33.65
2022-08-03T09:05:22.524Z,33.04
2022-08-03T09:10:21.084Z,33.23
2022-08-03T09:15:20.828Z,32.42
2022-08-03T09:20:21.467Z,32.72
2022-08-03T09:25:29.144Z,32.41
2022-08-03T09:30:34.235Z,32.21
2022-08-03T09:35:51.708Z,32.70
2022-08-03T09:40:24.929Z,32.20
2022-08-03T09:45:24.623Z,32.11
2022-08-03T09:50:25.326Z,32.31
2022-08-03T09:56:34.962Z,32.29
2022-08-03T10:00:27.583Z,31.39
2022-08-03T10:05:27.245Z,31.59
2022-08-03T10:10:29.935Z,31.48
2022-08-03T10:16:21.477Z,30.49
2022-08-03T10:20:30.452Z,30.49
2022-08-03T10:25:33.230Z,30.60
2022-08-03T10:30:30.631Z,31.09
2022-08-03T10:35:31.313Z,30.87
2022-08-03T10:40:49.461Z,30.38
2022-08-03T10:45:33.589Z,29.79
2022-08-03T10:50:33.235Z,30.66
2022-08-03T10:55:33.907Z,30.38
2022-08-03T11:00:34.803Z,29.58
2022-08-03T11:05:35.484Z,30.27
2022-08-03T11:10:36.067Z,29.47
2022-08-03T11:15:36.735Z,29.64
2022-08-03T11:20:37.429Z,29.53
2022-08-03T11:25:54.636Z,29.13
2022-08-03T11:30:39.646Z,28.85
2022-08-03T11:35:39.401Z,29.16
2022-08-03T11:40:40.051Z,28.75
2022-08-03T11:45:40.740Z,28.77
2022-08-03T11:50:41.420Z,28.15
2022-08-03T11:55:42.072Z,28.34
2022-08-03T12:00:42.760Z,28.13
2022-08-03T12:05:51.104Z,28.03
2022-08-03T12:10:45.068Z,28.33
2022-08-03T12:15:44.731Z,28.53
2022-08-03T12:20:45.414Z,28.33
2022-08-03T12:25:46.087Z,28.43
2022-08-03T12:30:46.766Z,28.43
2022-08-03T12:35:52.621Z,28.51
2022-08-03T12:40:49.014Z,28.22
2022-08-03T12:45:48.709Z,28.51
2022-08-03T12:50:53.732Z,28.63
2022-08-03T12:56:05.281Z,28.41
2022-08-03T13:00:51.558Z,28.61
2022-08-03T13:05:51.083Z,28.02
2022-08-03T13:10:51.771Z,28.59
2022-08-03T13:15:52.478Z,28.30
2022-08-03T13:20:53.117Z,27.90
2022-08-03T13:25:55.716Z,27.20
2022-08-03T13:30:54.369Z,28.00
2022-08-03T13:35:55.048Z,28.50
2022-08-03T13:40:55.849Z,28.81
2022-08-03T13:45:57.789Z,28.40
2022-08-03T13:50:57.143Z,28.79
2022-08-03T13:55:58.048Z,28.49
2022-08-03T14:00:58.739Z,28.28
2022-08-03T14:05:59.423Z,27.88
2022-08-03T14:11:00.094Z,27.88
2022-08-03T14:16:00.783Z,28.09
2022-08-03T14:21:05.459Z,28.47
2022-08-03T14:26:02.302Z,27.88
2022-08-03T14:31:03.073Z,28.47
2022-08-03T14:36:03.753Z,27.98
2022-08-03T14:41:04.428Z,28.57
2022-08-03T14:46:05.087Z,28.47
2022-08-03T14:51:05.785Z,28.38
2022-08-03T14:56:10.039Z,28.08
2022-08-03T15:02:02.822Z,28.39
2022-08-03T15:06:08.787Z,28.68
2022-08-03T15:11:08.433Z,28.99
2022-08-03T15:16:09.111Z,28.88
2022-08-03T15:21:20.811Z,28.58
2022-08-03T15:32:00.069Z,28.78
2022-08-03T15:37:00.700Z,28.96
2022-08-03T15:42:01.477Z,28.57
2022-08-03T15:47:02.114Z,28.68
2022-08-03T15:52:02.766Z,28.58
2022-08-03T15:57:03.422Z,29.36
2022-08-03T16:02:04.235Z,28.88
2022-08-03T16:07:05.380Z,29.07
2022-08-03T16:12:06.045Z,28.97
2022-08-03T16:17:07.858Z,29.27
2022-08-03T16:22:08.152Z,29.28
2022-08-03T16:27:07.912Z,29.48
2022-08-03T16:32:09.657Z,29.77
2022-08-03T16:37:36.526Z,29.95
2022-08-03T16:42:10.437Z,29.36
2022-08-03T16:47:10.174Z,30.25
2022-08-03T16:52:13.023Z,29.68
2022-08-03T16:57:56.265Z,30.16
2022-08-03T17:02:13.129Z,30.16
2022-08-03T17:07:12.885Z,30.26
2022-08-03T17:12:13.388Z,30.47
2022-08-03T17:17:16.223Z,30.47
2022-08-03T17:22:16.048Z,30.29
2022-08-03T17:27:23.193Z,30.39
2022-08-03T17:32:21.414Z,30.39
2022-08-03T17:37:50.183Z,30.08
2022-08-03T17:42:30.568Z,30.47
2022-08-03T17:47:19.273Z,30.87
2022-08-03T17:52:18.710Z,30.96
2022-08-03T17:57:22.602Z,32.25
2022-08-03T18:02:29.781Z,32.35
2022-08-03T18:07:21.210Z,31.67
2022-08-03T18:12:22.317Z,32.27
2022-08-03T18:17:21.716Z,34.05
2022-08-03T18:22:25.200Z,33.79
2022-08-03T18:27:23.253Z,34.59
2022-08-03T18:32:25.384Z,34.80
2022-08-03T18:37:25.498Z,34.70
2022-08-03T18:42:26.177Z,35.61
2022-08-03T18:47:25.436Z,36.51
2022-08-03T18:52:28.023Z,36.33
2022-08-03T18:57:30.355Z,35.64
2022-08-03T19:02:28.389Z,36.43
2022-08-03T19:07:28.086Z,37.53
2022-08-03T19:12:31.172Z,38.83
2022-08-03T19:17:30.240Z,39.15
2022-08-03T19:22:31.026Z,39.26
2022-08-03T19:27:30.580Z,39.09
2022-08-03T19:32:31.233Z,40.17
2022-08-03T19:37:38.292Z,40.78
2022-08-03T19:42:33.522Z,41.00
2022-08-03T19:47:33.349Z,41.30
2022-08-03T19:52:34.078Z,41.81
2022-08-03T19:57:34.901Z,42.40
2022-08-03T20:02:35.557Z,42.99
2022-08-03T20:07:36.376Z,43.41
2022-08-03T20:12:39.376Z,43.41
2022-08-03T20:17:57.067Z,43.33
2022-08-03T20:22:39.441Z,44.62
2022-08-03T20:28:07.024Z,44.74
2022-08-03T20:32:40.592Z,44.64
2022-08-03T20:37:40.311Z,45.16
2022-08-03T20:42:41.106Z,45.16
2022-08-03T20:47:50.711Z,45.45
2022-08-03T20:52:43.953Z,45.85
2022-08-03T20:57:51.570Z,46.27
2022-08-03T21:02:44.627Z,46.67
2022-08-03T21:08:04.006Z,48.55
2022-08-03T21:12:45.942Z,48.67
2022-08-03T21:17:46.079Z,47.38
2022-08-03T21:22:46.718Z,48.47
2022-08-03T21:27:47.443Z,50.18
2022-08-03T21:32:56.232Z,50.68
2022-08-03T21:37:49.054Z,50.58
2022-08-03T21:42:49.948Z,50.51
2022-08-03T21:47:50.637Z,50.11
2022-08-03T21:52:51.644Z,50.81
2022-08-03T21:57:51.919Z,51.89
2022-08-03T22:02:54.497Z,50.31
2022-08-03T22:07:53.297Z,50.03
2022-08-03T22:12:54.149Z,49.74
2022-08-03T22:17:57.205Z,50.13
2022-08-03T22:22:56.743Z,49.24
2022-08-03T22:27:56.609Z,48.54
2022-08-03T22:32:57.328Z,49.74
2022-08-03T22:37:58.067Z,48.65
2022-08-03T22:42:58.797Z,48.94
2022-08-03T22:47:59.563Z,48.57
2022-08-03T22:53:00.345Z,49.44
2022-08-03T22:58:01.119Z,49.66
2022-08-03T23:03:02.119Z,49.76
2022-08-03T23:08:02.513Z,50.38
2022-08-03T23:13:03.275Z,50.68
2022-08-03T23:18:04.246Z,50.88
2022-08-03T23:23:04.946Z,51.87
2022-08-03T23:28:06.133Z,51.87
2022-08-03T23:33:06.002Z,51.28
2022-08-03T23:38:22.866Z,51.28
2022-08-03T23:43:08.445Z,52.07
2022-08-03T23:48:08.927Z,52.09
2022-08-03T23:53:08.697Z,53.19
2022-08-03T23:58:10.931Z,52.69
